Time;durP1;ratioP1;P1;durP2;ratioP2;P2;SDS_P1;SDS_P2;PMS_P1;PMS_P2;Temp;Humidity;BMP_temperature;BMP_pressure;BME280_temperature;BME280_humidity;BME280_pressure;Samples;Min_cycle;Max_cycle;Signal;HPM_P1;HPM_P2
2023/12/22 00:01:53;;;;;;;1999.90;999.90;;;;;;;10.56;75.92;100028.13;10457561;28;20067;-61
2023/12/22 00:06:56;;;;;;;1999.90;999.90;;;;;;;10.81;74.85;100055.19;10457389;28;20555;-62
2023/12/22 00:11:58;;;;;;;1999.90;999.90;;;;;;;11.08;75.41;100055.03;10457216;28;20049;-62
2023/12/22 00:17:00;;;;;;;1999.90;999.90;;;;;;;11.43;74.90;100070.84;10457046;28;20075;-61
2023/12/22 00:22:03;;;;;;;1999.90;999.90;;;;;;;11.05;78.24;100081.44;10457083;28;20076;-62
2023/12/22 00:27:06;;;;;;;1999.90;999.90;;;;;;;10.81;77.69;100063.03;10456826;28;20044;-61
2023/12/22 00:32:09;;;;;;;1999.90;999.90;;;;;;;11.45;75.35;100075.97;10456911;28;20143;-61
2023/12/22 00:37:12;;;;;;;1999.90;999.90;;;;;;;11.19;74.98;100090.94;10456679;28;20045;-61
2023/12/22 00:42:15;;;;;;;1999.90;999.90;;;;;;;10.86;75.61;100089.72;10456990;28;20084;-61
2023/12/22 00:47:17;;;;;;;1999.90;999.90;;;;;;;11.59;73.39;100088.88;10456216;28;20049;-61
2023/12/22 00:52:19;;;;;;;1999.90;999.90;;;;;;;10.58;77.39;100152.69;10456475;28;20064;-61
2023/12/22 00:57:22;;;;;;;1999.90;999.90;;;;;;;10.36;76.19;100155.91;10459774;28;20049;-61
2023/12/22 01:02:24;;;;;;;1999.90;999.90;;;;;;;10.23;75.53;100140.16;10464707;28;20420;-61
2023/12/22 01:07:26;;;;;;;1999.90;999.90;;;;;;;5.93;100.00;100208.78;10464494;28;20041;-61
2023/12/22 01:12:29;;;;;;;1999.90;999.90;;;;;;;5.74;100.00;100163.78;10464199;28;20045;-61
2023/12/22 01:17:32;;;;;;;1999.90;999.90;;;;;;;5.68;100.00;100156.28;10464255;28;20045;-61
2023/12/22 01:22:38;;;;;;;1999.90;999.90;;;;;;;5.80;100.00;100139.25;10462746;28;20060;-61
2023/12/22 01:27:40;;;;;;;1999.90;999.90;;;;;;;5.82;100.00;100140.06;10463534;28;20431;-61
2023/12/22 01:32:43;;;;;;;1999.90;999.90;;;;;;;6.23;100.00;100160.59;10463398;28;20408;-61
2023/12/22 01:37:47;;;;;;;1999.90;999.90;;;;;;;6.19;100.00;100159.09;10463115;28;20083;-61
2023/12/22 01:42:50;;;;;;;1999.90;999.90;;;;;;;5.97;100.00;100183.50;10461913;28;20417;-61
2023/12/22 01:47:52;;;;;;;1999.90;999.90;;;;;;;6.10;100.00;100175.94;10462642;28;20071;-61
2023/12/22 01:52:55;;;;;;;1999.90;999.90;;;;;;;6.03;100.00;100153.78;10462712;28;20527;-61
2023/12/22 01:57:58;;;;;;;1999.90;999.90;;;;;;;6.00;100.00;100170.38;10461828;28;20373;-61
2023/12/22 02:03:00;;;;;;;1999.90;999.90;;;;;;;6.24;100.00;100180.50;10462206;28;20498;-61
2023/12/22 02:08:03;;;;;;;1999.90;999.90;;;;;;;6.07;100.00;100179.56;10460883;28;20045;-61
2023/12/22 02:13:05;;;;;;;1999.90;999.90;;;;;;;5.94;100.00;100204.41;10461833;28;20059;-61
2023/12/22 02:18:15;;;;;;;1999.90;999.90;;;;;;;6.00;100.00;100211.97;10460684;28;20072;-61
2023/12/22 02:23:17;;;;;;;1999.90;999.90;;;;;;;6.05;100.00;100203.91;10443774;28;20051;-61
2023/12/22 02:28:21;;;;;;;1999.90;999.90;;;;;;;6.11;100.00;100194.06;10461149;28;20472;-61
2023/12/22 02:33:24;;;;;;;1999.90;999.90;;;;;;;6.37;100.00;100180.72;10460075;28;20053;-61
2023/12/22 02:38:27;;;;;;;1999.90;999.90;;;;;;;6.23;100.00;100164.03;10459840;28;20049;-61
2023/12/22 02:43:29;;;;;;;1999.90;999.90;;;;;;;6.20;100.00;100156.38;10459730;28;20055;-61
2023/12/22 02:48:32;;;;;;;1999.90;999.90;;;;;;;6.08;100.00;100147.44;10460900;28;20395;-61
2023/12/22 02:53:34;;;;;;;1999.90;999.90;;;;;;;6.41;100.00;100145.84;10460628;28;20084;-61
2023/12/22 02:58:37;;;;;;;1999.90;999.90;;;;;;;6.18;100.00;100139.19;10460156;28;20057;-61
2023/12/22 03:03:39;;;;;;;1999.90;999.90;;;;;;;6.18;100.00;100119.22;10459936;28;20484;-61
2023/12/22 03:08:41;;;;;;;1999.90;999.90;;;;;;;5.99;100.00;100116.72;10459701;28;20053;-62
2023/12/22 03:13:44;;;;;;;1999.90;999.90;;;;;;;6.04;100.00;100116.50;10459505;28;20052;-61
2023/12/22 03:18:46;;;;;;;1999.90;999.90;;;;;;;6.25;100.00;100122.38;10458852;28;20045;-62
2023/12/22 03:23:48;;;;;;;1999.90;999.90;;;;;;;6.23;100.00;100113.81;10459127;28;20053;-62
2023/12/22 03:28:51;;;;;;;1999.90;999.90;;;;;;;6.18;100.00;100119.22;10459136;28;20140;-62
2023/12/22 03:33:53;;;;;;;1999.90;999.90;;;;;;;6.38;100.00;100130.41;10458723;28;20111;-61
2023/12/22 03:38:56;;;;;;;1999.90;999.90;;;;;;;6.59;100.00;100133.66;10458507;28;20102;-61
2023/12/22 03:43:58;;;;;;;1999.90;999.90;;;;;;;6.72;100.00;100110.47;10458517;28;20049;-61
2023/12/22 03:49:01;;;;;;;1999.90;999.90;;;;;;;6.77;100.00;100147.47;10458089;28;20049;-62
2023/12/22 03:54:03;;;;;;;1999.90;999.90;;;;;;;6.95;100.00;100153.50;10457899;28;20140;-61
2023/12/22 03:59:06;;;;;;;1999.90;999.90;;;;;;;6.88;100.00;100148.59;10457868;28;20067;-61
2023/12/22 04:04:08;;;;;;;1999.90;999.90;;;;;;;7.11;100.00;100133.53;10457457;28;20128;-61
2023/12/22 04:09:10;;;;;;;1999.90;999.90;;;;;;;7.03;100.00;100133.94;10457464;28;20132;-61
2023/12/22 04:14:13;;;;;;;1999.90;999.90;;;;;;;7.10;100.00;100151.84;10457189;28;20049;-61
2023/12/22 04:19:15;;;;;;;1999.90;999.90;;;;;;;6.68;100.00;100211.25;10457158;28;20053;-61
2023/12/22 04:24:18;;;;;;;1999.90;999.90;;;;;;;6.14;100.00;100214.72;10456943;28;20052;-61
2023/12/22 04:29:21;;;;;;;1999.90;999.90;;;;;;;5.77;100.00;100226.00;10456955;28;20049;-61
2023/12/22 04:34:23;;;;;;;1999.90;999.90;;;;;;;5.90;100.00;100218.44;10455899;28;20074;-61
2023/12/22 04:39:26;;;;;;;1999.90;999.90;;;;;;;5.76;100.00;100237.28;10456526;28;20516;-61
2023/12/22 04:44:28;;;;;;;1999.90;999.90;;;;;;;5.69;100.00;100212.50;10456365;28;20400;-61
2023/12/22 04:49:31;;;;;;;1999.90;999.90;;;;;;;5.83;100.00;100210.09;10456285;28;20051;-61
2023/12/22 04:54:33;;;;;;;1999.90;999.90;;;;;;;5.91;100.00;100212.34;10456417;28;20492;-61
2023/12/22 04:59:35;;;;;;;1999.90;999.90;;;;;;;5.75;100.00;100201.84;10456217;28;20045;-61
2023/12/22 05:04:38;;;;;;;1999.90;999.90;;;;;;;5.83;100.00;100219.66;10456002;28;20405;-61
2023/12/22 05:09:42;;;;;;;1999.90;999.90;;;;;;;5.90;100.00;100211.50;10454836;28;20098;-61
2023/12/22 05:14:44;;;;;;;1999.90;999.90;;;;;;;6.11;100.00;100207.06;10455785;28;20476;-61
2023/12/22 05:19:47;;;;;;;1999.90;999.90;;;;;;;5.90;100.00;100208.06;10455971;28;20045;-62
2023/12/22 05:24:49;;;;;;;1999.90;999.90;;;;;;;6.06;100.00;100223.81;10455590;28;20103;-61
2023/12/22 05:29:51;;;;;;;1999.90;999.90;;;;;;;6.38;100.00;100206.63;10454354;28;20089;-61
2023/12/22 05:34:54;;;;;;;1999.90;999.90;;;;;;;6.85;100.00;100203.41;10455571;28;20077;-61
2023/12/22 05:39:56;;;;;;;1999.90;999.90;;;;;;;6.69;100.00;100212.91;10455282;28;20057;-61
2023/12/22 05:44:59;;;;;;;1999.90;999.90;;;;;;;6.89;100.00;100198.88;10460949;28;20123;-62
2023/12/22 05:50:01;;;;;;;1999.90;999.90;;;;;;;6.96;100.00;100205.47;10462794;28;20102;-61
2023/12/22 05:55:04;;;;;;;1999.90;999.90;;;;;;;7.21;100.00;100179.00;10462849;28;20061;-62
2023/12/22 06:00:09;;;;;;;1999.90;999.90;;;;;;;6.91;100.00;100175.38;10462673;28;20053;-61
2023/12/22 06:05:12;;;;;;;1999.90;999.90;;;;;;;7.13;100.00;100188.09;10462713;28;20484;-62
2023/12/22 06:10:14;;;;;;;1999.90;999.90;;;;;;;7.25;100.00;100187.47;10462180;28;20103;-61
2023/12/22 06:15:17;;;;;;;1999.90;999.90;;;;;;;7.30;100.00;100188.06;10461862;28;20045;-62
2023/12/22 06:20:19;;;;;;;1999.90;999.90;;;;;;;7.43;100.00;100176.06;10461794;28;20059;-61
2023/12/22 06:25:21;;;;;;;1999.90;999.90;;;;;;;7.37;100.00;100178.16;10461527;28;20045;-61
2023/12/22 06:30:24;;;;;;;1999.90;999.90;;;;;;;7.72;100.00;100175.41;10461422;28;20053;-62
2023/12/22 06:35:27;;;;;;;1999.90;999.90;;;;;;;7.61;100.00;100186.41;10461192;28;20045;-61
2023/12/22 06:40:30;;;;;;;1999.90;999.90;;;;;;;7.56;100.00;100175.38;10460893;28;20397;-62
2023/12/22 06:45:32;;;;;;;1999.90;999.90;;;;;;;7.61;100.00;100178.59;10459580;28;20077;-62
2023/12/22 06:50:36;;;;;;;1999.90;999.90;;;;;;;7.55;100.00;100176.34;10459268;28;20075;-62
2023/12/22 06:55:39;;;;;;;1999.90;999.90;;;;;;;7.72;100.00;100163.22;10459737;28;20052;-62
2023/12/22 07:00:41;;;;;;;1999.90;999.90;;;;;;;7.87;100.00;100173.69;10460245;28;20164;-61
2023/12/22 07:05:44;;;;;;;1999.90;999.90;;;;;;;7.93;100.00;100162.91;10458704;28;20506;-62
2023/12/22 07:10:47;;;;;;;1999.90;999.90;;;;;;;7.86;100.00;100159.00;10459787;28;20060;-62
2023/12/22 07:15:49;;;;;;;1999.90;999.90;;;;;;;7.86;100.00;100148.56;10459382;28;20053;-62
2023/12/22 07:20:53;;;;;;;1999.90;999.90;;;;;;;7.93;100.00;100168.97;10459284;28;20507;-62
2023/12/22 07:25:56;;;;;;;1999.90;999.90;;;;;;;7.94;100.00;100168.06;10458793;28;20140;-61
2023/12/22 07:30:58;;;;;;;1999.90;999.90;;;;;;;7.94;100.00;100186.31;10459245;28;20393;-62
2023/12/22 07:36:02;;;;;;;1999.90;999.90;;;;;;;8.07;100.00;100183.00;10458572;28;20482;-62
2023/12/22 07:41:05;;;;;;;1999.90;999.90;;;;;;;8.15;100.00;100180.78;10458358;28;20055;-62
2023/12/22 07:46:09;;;;;;;1999.90;999.90;;;;;;;8.15;100.00;100183.41;10456880;28;20510;-62
2023/12/22 07:51:12;;;;;;;1999.90;999.90;;;;;;;8.31;100.00;100178.16;10457199;28;20468;-62
2023/12/22 07:56:15;;;;;;;1999.90;999.90;;;;;;;8.36;100.00;100170.91;10457686;28;20049;-62
2023/12/22 08:01:17;;;;;;;1999.90;999.90;;;;;;;8.47;100.00;100183.34;10457609;28;20056;-62
2023/12/22 08:06:20;;;;;;;1999.90;999.90;;;;;;;8.55;100.00;100189.78;10457637;28;20055;-62
2023/12/22 08:11:25;;;;;;;1999.90;999.90;;;;;;;8.52;100.00;100195.22;10457527;28;20048;-62
2023/12/22 08:16:27;;;;;;;1999.90;999.90;;;;;;;7.96;100.00;100199.25;10457371;28;20053;-62
2023/12/22 08:21:29;;;;;;;1999.90;999.90;;;;;;;8.04;100.00;100188.41;10457234;28;20045;-62
2023/12/22 08:26:45;;;;;;;1999.90;999.90;;;;;;;8.02;100.00;100179.81;10455876;28;20055;-61
2023/12/22 08:31:48;;;;;;;1999.90;999.90;;;;;;;8.40;100.00;100179.38;10456936;28;20060;-61
2023/12/22 08:36:51;;;;;;;1999.90;999.90;;;;;;;8.36;100.00;100170.91;10456598;28;20447;-62
2023/12/22 08:41:53;;;;;;;1999.90;999.90;;;;;;;8.24;100.00;100150.72;10456804;28;20083;-62
2023/12/22 08:46:56;;;;;;;1999.90;999.90;;;;;;;8.21;100.00;100149.16;10455336;28;20080;-62
2023/12/22 08:51:58;;;;;;;1999.90;999.90;;;;;;;8.33;100.00;100153.66;10456141;28;20060;-62
2023/12/22 08:57:01;;;;;;;1999.90;999.90;;;;;;;8.26;100.00;100164.53;10456238;28;20048;-62
2023/12/22 09:02:04;;;;;;;1999.90;999.90;;;;;;;7.84;100.00;100172.09;10456101;28;20052;-62
2023/12/22 09:07:06;;;;;;;1999.90;999.90;;;;;;;7.92;100.00;100169.09;10456683;28;20127;-61
2023/12/22 09:12:08;;;;;;;1999.90;999.90;;;;;;;7.91;100.00;100173.44;10455998;28;20052;-62
2023/12/22 09:17:11;;;;;;;1999.90;999.90;;;;;;;8.13;100.00;100167.84;10457148;28;20045;-62
2023/12/22 09:22:13;;;;;;;1999.90;999.90;;;;;;;8.15;100.00;100154.72;10464139;28;20079;-62
2023/12/22 09:27:16;;;;;;;1999.90;999.90;;;;;;;8.50;100.00;100155.31;10463677;28;20132;-62
2023/12/22 09:32:18;;;;;;;1999.90;999.90;;;;;;;8.60;100.00;100163.44;10463770;28;20056;-62
2023/12/22 09:37:20;;;;;;;1999.90;999.90;;;;;;;8.52;100.00;100156.06;10462320;28;20049;-62
2023/12/22 09:42:26;;;;;;;1999.90;999.90;;;;;;;8.50;100.00;100157.06;10463366;28;20049;-62
2023/12/22 09:47:29;;;;;;;1999.90;999.90;;;;;;;8.65;100.00;100166.59;10462998;28;20407;-62
2023/12/22 09:52:32;;;;;;;1999.90;999.90;;;;;;;8.28;100.00;100163.50;10461558;28;20053;-62
2023/12/22 09:57:37;;;;;;;1999.90;999.90;;;;;;;8.30;100.00;100142.56;10461958;28;20504;-62
2023/12/22 10:02:40;;;;;;;1999.90;999.90;;;;;;;7.81;100.00;100144.44;10461358;28;20052;-62
2023/12/22 10:07:44;;;;;;;1999.90;999.90;;;;;;;7.94;100.00;100146.38;10462376;28;20049;-62
2023/12/22 10:12:46;;;;;;;1999.90;999.90;;;;;;;8.08;100.00;100143.78;10462140;28;20073;-62
2023/12/22 10:17:52;;;;;;;1999.90;999.90;;;;;;;8.04;100.00;100134.50;10460897;28;20053;-62
2023/12/22 10:22:55;;;;;;;1999.90;999.90;;;;;;;8.50;100.00;100125.78;10460635;28;20049;-62
2023/12/22 10:27:58;;;;;;;1999.90;999.90;;;;;;;8.62;100.00;100122.41;10460810;28;20056;-62
2023/12/22 10:33:01;;;;;;;1999.90;999.90;;;;;;;8.95;100.00;100120.50;10460895;28;20136;-62
2023/12/22 10:38:04;;;;;;;1999.90;999.90;;;;;;;9.43;100.00;100118.34;10460381;28;20526;-62
2023/12/22 10:43:07;;;;;;;1999.90;999.90;;;;;;;9.36;100.00;100115.28;10460831;28;20488;-62
2023/12/22 10:48:11;;;;;;;1999.90;999.90;;;;;;;9.54;100.00;100118.50;10459354;28;20079;-62
2023/12/22 10:53:14;;;;;;;1999.90;999.90;;;;;;;9.63;100.00;100101.38;10459350;28;20053;-62
2023/12/22 10:58:20;;;;;;;1999.90;999.90;;;;;;;9.59;100.00;100118.22;10460539;28;20060;-62
2023/12/22 11:03:26;;;;;;;1999.90;999.90;;;;;;;9.60;100.00;100098.97;10459185;28;20052;-62
2023/12/22 11:08:29;;;;;;;1999.90;999.90;;;;;;;9.83;100.00;100114.03;10471535;22;20106;-63
2023/12/22 11:13:32;;;;;;;1999.90;999.90;;;;;;;9.48;100.00;100111.03;10458647;28;20102;-63
2023/12/22 11:18:35;;;;;;;1999.90;999.90;;;;;;;9.85;100.00;100111.28;10458588;28;20055;-63
2023/12/22 11:23:39;;;;;;;1999.90;999.90;;;;;;;9.86;100.00;100100.72;10458294;28;20094;-62
2023/12/22 11:28:43;;;;;;;1999.90;999.90;;;;;;;9.88;100.00;100105.03;10457838;28;20583;-62
2023/12/22 11:33:47;;;;;;;1999.90;999.90;;;;;;;9.95;100.00;100112.38;10459061;28;20057;-63
2023/12/22 11:39:05;;;;;;;1999.90;999.90;;;;;;;9.88;100.00;100110.25;10457755;28;20134;-63
2023/12/22 11:44:08;;;;;;;1999.90;999.90;;;;;;;9.88;100.00;100126.78;10458357;28;20060;-63
2023/12/22 11:49:10;;;;;;;1999.90;999.90;;;;;;;9.83;100.00;100094.88;10457113;28;20128;-63
2023/12/22 11:54:49;;;;;;;1999.90;999.90;;;;;;;9.82;100.00;100104.50;10440941;28;20405;-63
2023/12/22 11:59:52;;;;;;;1999.90;999.90;;;;;;;10.07;100.00;100102.03;10452342;28;20049;-62
2023/12/22 12:04:54;;;;;;;1999.90;999.90;;;;;;;10.04;100.00;100095.25;10457771;28;20498;-63
2023/12/22 12:09:57;;;;;;;1999.90;999.90;;;;;;;10.14;100.00;100091.06;10456411;28;20056;-63
2023/12/22 12:15:09;;;;;;;1999.90;999.90;;;;;;;9.86;100.00;100107.75;10457532;28;20053;-62
2023/12/22 12:20:12;;;;;;;1999.90;999.90;;;;;;;9.87;100.00;100112.03;10456327;28;20107;-63
2023/12/22 12:25:14;;;;;;;1999.90;999.90;;;;;;;9.61;100.00;100085.81;10457013;28;20053;-63
2023/12/22 12:30:27;;;;;;;1999.90;999.90;;;;;;;9.76;100.00;100077.91;10455805;28;20053;-62
2023/12/22 12:35:29;;;;;;;1999.90;999.90;;;;;;;9.85;100.00;100070.31;10456964;28;20051;-62
2023/12/22 12:40:34;;;;;;;1999.90;999.90;;;;;;;9.83;100.00;100068.72;10456605;28;20049;-63
2023/12/22 12:45:37;;;;;;;1999.90;999.90;;;;;;;10.06;100.00;100061.16;10455424;28;20452;-63
2023/12/22 12:50:39;;;;;;;1999.90;999.90;;;;;;;10.01;100.00;100067.50;10456413;28;20040;-62
2023/12/22 12:55:43;;;;;;;1999.90;999.90;;;;;;;10.03;100.00;100065.63;10455780;28;20057;-62
2023/12/22 13:00:45;;;;;;;1999.90;999.90;;;;;;;9.94;100.00;100050.56;10456298;28;20432;-62
2023/12/22 13:05:48;;;;;;;1999.90;999.90;;;;;;;9.96;100.00;100074.00;10456023;28;20072;-62
2023/12/22 13:11:01;;;;;;;1999.90;999.90;;;;;;;9.73;100.00;100062.44;10455905;28;20053;-62
2023/12/22 13:16:04;;;;;;;1999.90;999.90;;;;;;;10.00;100.00;100070.22;10454904;28;20056;-62
2023/12/22 13:21:06;;;;;;;1999.90;999.90;;;;;;;9.96;100.00;100077.44;10454975;28;20053;-62
2023/12/22 13:26:19;;;;;;;1999.90;999.90;;;;;;;10.07;100.00;100081.09;10454648;28;20045;-63
2023/12/22 13:31:21;;;;;;;1999.90;999.90;;;;;;;10.09;100.00;100087.94;10454499;28;20059;-63
2023/12/22 13:36:24;;;;;;;1999.90;999.90;;;;;;;10.09;100.00;100087.94;10455669;28;20048;-63
2023/12/22 13:41:26;;;;;;;1999.90;999.90;;;;;;;10.12;100.00;100092.09;10454235;28;20476;-63
2023/12/22 13:46:29;;;;;;;1999.90;999.90;;;;;;;10.22;100.00;100080.06;10455809;28;20071;-62
2023/12/22 13:51:41;;;;;;;1999.90;999.90;;;;;;;10.37;100.00;100086.94;10455814;28;20083;-63
2023/12/22 13:56:44;;;;;;;1999.90;999.90;;;;;;;10.20;100.00;100081.97;10455403;28;20124;-62
2023/12/22 14:01:46;;;;;;;1999.90;999.90;;;;;;;10.22;100.00;100080.94;10455172;28;20057;-62
2023/12/22 14:06:49;;;;;;;1999.90;999.90;;;;;;;10.22;100.00;100095.78;10460984;28;20056;-62
2023/12/22 14:11:51;;;;;;;1999.90;999.90;;;;;;;10.33;100.00;100103.78;10458701;28;20069;-62
2023/12/22 14:17:03;;;;;;;1999.90;999.90;;;;;;;10.36;100.00;100090.50;10459559;28;20128;-62
2023/12/22 14:22:05;;;;;;;1999.90;999.90;;;;;;;10.31;100.00;100092.56;10459390;28;20583;-62
2023/12/22 14:27:09;;;;;;;1999.90;999.90;;;;;;;10.18;100.00;100117.88;10457979;28;20080;-62
2023/12/22 14:32:14;;;;;;;1999.90;999.90;;;;;;;10.04;100.00;100109.16;10458222;28;20059;-62
2023/12/22 14:37:17;;;;;;;1999.90;999.90;;;;;;;10.04;100.00;100114.38;10457923;28;20060;-62
2023/12/22 14:42:19;;;;;;;1999.90;999.90;;;;;;;10.22;100.00;100114.09;10457554;28;20044;-62
2023/12/22 14:47:21;;;;;;;1999.90;999.90;;;;;;;10.18;100.00;100126.53;10457332;28;20478;-62
2023/12/22 14:52:24;;;;;;;1999.90;999.90;;;;;;;10.16;100.00;100127.59;10458425;28;20479;-62
2023/12/22 14:57:28;;;;;;;1999.90;999.90;;;;;;;10.20;100.00;100144.75;10458582;28;20077;-62
2023/12/22 15:02:31;;;;;;;1999.90;999.90;;;;;;;10.11;100.00;100150.59;10457099;28;20127;-62
2023/12/22 15:07:33;;;;;;;1999.90;999.90;;;;;;;10.16;100.00;100146.72;10419568;28;1108496;-62
2023/12/22 15:12:37;;;;;;;1999.90;999.90;;;;;;;10.19;100.00;100140.47;10458896;28;20053;-62
2023/12/22 15:17:40;;;;;;;1999.90;999.90;;;;;;;10.19;100.00;100153.56;10457844;28;20056;-62
2023/12/22 15:22:42;;;;;;;1999.90;999.90;;;;;;;10.05;100.00;100159.66;10460064;28;20049;-62
2023/12/22 15:27:44;;;;;;;1999.90;999.90;;;;;;;9.93;100.00;100174.38;10459533;28;20099;-62
2023/12/22 15:32:47;;;;;;;1999.90;999.90;;;;;;;9.95;100.00;100161.22;10458961;28;20053;-62
2023/12/22 15:37:51;;;;;;;1999.90;999.90;;;;;;;9.86;100.00;100173.94;10458756;28;20484;-62
2023/12/22 15:42:53;;;;;;;1999.90;999.90;;;;;;;9.85;100.00;100185.34;10458651;28;20045;-62
2023/12/22 15:47:57;;;;;;;1999.90;999.90;;;;;;;9.81;100.00;100196.09;10458688;28;20484;-62
2023/12/22 15:52:59;;;;;;;1999.90;999.90;;;;;;;9.94;100.00;100178.69;10458292;28;20073;-63
2023/12/22 15:58:02;;;;;;;1999.90;999.90;;;;;;;9.82;100.00;100203.84;10456765;28;20443;-62
2023/12/22 16:03:05;;;;;;;1999.90;999.90;;;;;;;9.67;100.00;100210.06;10458245;28;20527;-62
2023/12/22 16:08:07;;;;;;;1999.90;999.90;;;;;;;9.69;100.00;100183.81;10457680;28;20064;-61
2023/12/22 16:13:14;;;;;;;1999.90;999.90;;;;;;;9.66;100.00;100203.97;10457408;28;20456;-62
2023/12/22 16:18:17;;;;;;;1999.90;999.90;;;;;;;9.78;100.00;100206.75;10457449;28;20155;-62
2023/12/22 16:23:22;;;;;;;1999.90;999.90;;;;;;;9.91;100.00;100193.75;10457261;28;20060;-61
2023/12/22 16:28:24;;;;;;;1999.90;999.90;;;;;;;9.94;100.00;100204.00;10456056;28;20048;-62
2023/12/22 16:33:27;;;;;;;1999.90;999.90;;;;;;;9.98;100.00;100208.91;10457088;28;20057;-62
2023/12/22 16:38:29;;;;;;;1999.90;999.90;;;;;;;9.96;100.00;100189.06;10455632;28;20049;-62
2023/12/22 16:43:33;;;;;;;1999.90;999.90;;;;;;;9.99;100.00;100207.16;10456815;28;20059;-62
2023/12/22 16:48:36;;;;;;;1999.90;999.90;;;;;;;9.97;100.00;100214.25;10456556;28;20041;-62
2023/12/22 16:53:39;;;;;;;1999.90;999.90;;;;;;;10.07;100.00;100209.28;10455200;28;20136;-62
2023/12/22 16:58:41;;;;;;;1999.90;999.90;;;;;;;10.09;100.00;100208.25;10455188;28;20045;-63
2023/12/22 17:03:43;;;;;;;1999.90;999.90;;;;;;;9.92;100.00;100219.78;10456340;28;20073;-61
2023/12/22 17:08:46;;;;;;;1999.90;999.90;;;;;;;9.97;100.00;100230.81;10455089;28;20052;-62
2023/12/22 17:13:49;;;;;;;1999.90;999.90;;;;;;;9.80;100.00;100242.34;10456125;28;20059;-62
2023/12/22 17:18:51;;;;;;;1999.90;999.90;;;;;;;9.75;100.00;100254.00;10455868;28;20049;-62
2023/12/22 17:23:54;;;;;;;1999.90;999.90;;;;;;;9.48;100.00;100239.94;10455731;28;20480;-62
2023/12/22 17:28:56;;;;;;;1999.90;999.90;;;;;;;9.59;100.00;100268.03;10455479;28;20063;-62
2023/12/22 17:33:59;;;;;;;1999.90;999.90;;;;;;;9.50;100.00;100276.44;10455402;28;20511;-62
2023/12/22 17:39:01;;;;;;;1999.90;999.90;;;;;;;9.21;100.00;100275.56;10458152;28;20049;-62
2023/12/22 17:44:04;;;;;;;1999.90;999.90;;;;;;;9.24;100.00;100268.38;10462108;28;20567;-62
2023/12/22 17:49:06;;;;;;;1999.90;999.90;;;;;;;9.23;100.00;100278.94;10461978;28;20147;-61
2023/12/22 17:54:09;;;;;;;1999.90;999.90;;;;;;;9.25;100.00;100279.69;10462906;28;20053;-61
2023/12/22 17:59:12;;;;;;;1999.90;999.90;;;;;;;9.32;100.00;100290.63;10462872;28;20128;-61
2023/12/22 18:04:15;;;;;;;1999.90;999.90;;;;;;;9.35;100.00;100293.88;10462555;28;20056;-61
2023/12/22 18:09:17;;;;;;;1999.90;999.90;;;;;;;9.34;100.00;100291.38;10462600;28;20089;-62
2023/12/22 18:14:19;;;;;;;1999.90;999.90;;;;;;;9.30;100.00;100291.53;10462031;28;20056;-62
2023/12/22 18:19:22;;;;;;;1999.90;999.90;;;;;;;9.34;100.00;100281.75;10460707;28;20051;-61
2023/12/22 18:24:24;;;;;;;1999.90;999.90;;;;;;;9.25;100.00;100298.81;10461275;28;20084;-62
2023/12/22 18:29:27;;;;;;;1999.90;999.90;;;;;;;9.42;100.00;100296.97;10461403;28;20419;-61
2023/12/22 18:34:29;;;;;;;1999.90;999.90;;;;;;;9.36;100.00;100295.53;10461325;28;20415;-62
2023/12/22 18:39:32;;;;;;;1999.90;999.90;;;;;;;9.32;100.00;100321.97;10461271;28;20064;-62
2023/12/22 18:44:34;;;;;;;1999.90;999.90;;;;;;;9.27;100.00;100307.41;10459790;28;20048;-62
2023/12/22 18:49:36;;;;;;;1999.90;999.90;;;;;;;9.31;100.00;100321.09;10459670;28;20075;-61
2023/12/22 18:54:39;;;;;;;1999.90;999.90;;;;;;;9.43;100.00;100325.63;10460519;28;20488;-61
2023/12/22 18:59:42;;;;;;;1999.90;999.90;;;;;;;9.45;100.00;100341.22;10460636;28;20055;-62
2023/12/22 19:04:44;;;;;;;1999.90;999.90;;;;;;;9.51;100.00;100356.50;10460700;28;20081;-61
2023/12/22 19:09:47;;;;;;;1999.90;999.90;;;;;;;9.53;100.00;100359.03;10460283;28;20048;-61
2023/12/22 19:14:49;;;;;;;1999.90;999.90;;;;;;;9.39;100.00;100347.63;10460033;28;20053;-61
2023/12/22 19:19:52;;;;;;;1999.90;999.90;;;;;;;9.27;100.00;100405.84;10460111;28;20076;-61
2023/12/22 19:24:54;;;;;;;1999.90;999.90;;;;;;;8.50;100.00;100407.53;10459598;28;20049;-61
2023/12/22 19:29:57;;;;;;;1999.90;999.90;;;;;;;8.23;100.00;100423.72;10459202;28;20052;-61
2023/12/22 19:34:59;;;;;;;1999.90;999.90;;;;;;;8.07;100.00;100455.00;10458978;28;20450;-61
2023/12/22 19:40:05;;;;;;;1999.90;999.90;;;;;;;8.22;100.00;100489.88;10458772;28;20525;-61
2023/12/22 19:45:11;;;;;;;1999.90;999.90;;;;;;;8.06;100.00;100492.44;10457526;28;20088;-62
2023/12/22 19:50:13;;;;;;;1999.90;999.90;;;;;;;7.97;100.00;100503.34;10458252;28;20488;-61
2023/12/22 19:55:16;;;;;;;1999.90;999.90;;;;;;;8.05;100.00;100508.16;10458193;28;20132;-62
2023/12/22 20:00:19;;;;;;;1999.90;999.90;;;;;;;7.91;100.00;100522.72;10457985;28;20128;-61
2023/12/22 20:05:22;;;;;;;1999.90;999.90;;;;;;;7.88;100.00;100532.47;10457814;28;20110;-61
2023/12/22 20:10:24;;;;;;;1999.90;999.90;;;;;;;7.80;100.00;100538.91;10457932;28;20108;-61
2023/12/22 20:15:26;;;;;;;1999.90;999.90;;;;;;;7.92;100.00;100550.50;10457337;28;20530;-61
2023/12/22 20:20:29;;;;;;;1999.90;999.90;;;;;;;7.69;100.00;100569.88;10457218;28;20419;-62
2023/12/22 20:25:31;;;;;;;1999.90;999.90;;;;;;;7.71;100.00;100568.03;10457242;28;20094;-61
2023/12/22 20:30:34;;;;;;;1999.90;999.90;;;;;;;7.77;100.00;100567.75;10456998;28;20110;-61
2023/12/22 20:35:36;;;;;;;1999.90;999.90;;;;;;;7.70;100.00;100566.34;10457083;28;20128;-61
2023/12/22 20:40:39;;;;;;;1999.90;999.90;;;;;;;7.63;100.00;100581.44;10456710;28;20049;-61
2023/12/22 20:45:42;;;;;;;1999.90;999.90;;;;;;;7.73;100.00;100589.66;10456713;28;20064;-62
2023/12/22 20:50:44;;;;;;;1999.90;999.90;;;;;;;7.50;100.00;100582.97;10456444;28;20124;-62
2023/12/22 20:55:47;;;;;;;1999.90;999.90;;;;;;;7.38;100.00;100596.53;10456291;28;20052;-61
2023/12/22 21:00:50;;;;;;;1999.90;999.90;;;;;;;7.55;100.00;100607.03;10456237;28;20049;-61
2023/12/22 21:05:54;;;;;;;1999.90;999.90;;;;;;;7.43;100.00;100613.66;10456146;28;20451;-62
2023/12/22 21:10:57;;;;;;;1999.90;999.90;;;;;;;7.46;100.00;100617.88;10454800;28;20049;-62
2023/12/22 21:16:01;;;;;;;1999.90;999.90;;;;;;;7.46;100.00;100620.47;10462197;28;20053;-62
2023/12/22 21:21:05;;;;;;;1999.90;999.90;;;;;;;7.41;100.00;100623.31;10463008;28;20502;-62
2023/12/22 21:26:19;;;;;;;1999.90;999.90;;;;;;;7.46;100.00;100638.72;10462972;28;20102;-62
2023/12/22 21:31:21;;;;;;;1999.90;999.90;;;;;;;7.41;100.00;100646.75;10463784;28;20400;-62
2023/12/22 21:36:25;;;;;;;1999.90;999.90;;;;;;;7.44;100.00;100657.00;10463705;28;20123;-62
2023/12/22 21:41:27;;;;;;;1999.90;999.90;;;;;;;7.32;100.00;100662.78;10462285;28;20063;-62
2023/12/22 21:46:30;;;;;;;1999.90;999.90;;;;;;;7.54;100.00;100662.66;10463379;28;20055;-62
2023/12/22 21:51:32;;;;;;;1999.90;999.90;;;;;;;7.41;100.00;100667.59;10461731;28;20404;-61
2023/12/22 21:56:34;;;;;;;1999.90;999.90;;;;;;;7.40;100.00;100691.94;10463314;28;20474;-61